Time;durP1;ratioP1;P1;durP2;ratioP2;P2;SDS_P1;SDS_P2;PMS_P1;PMS_P2;Temp;Humidity;BMP_temperature;BMP_pressure;BME280_temperature;BME280_humidity;BME280_pressure;Samples;Min_cycle;Max_cycle;Signal;HPM_P1;HPM_P2
2022/09/22 00:01:02;;;;;;;4.05;1.75;;;17.50;66.90;;;;;;6246738;23;20004;-84
2022/09/22 00:03:32;;;;;;;4.00;1.90;;;17.50;66.10;;;;;;6246561;23;20012;-87
2022/09/22 00:06:02;;;;;;;;;;;17.40;66.00;;;;;;6246492;23;20000;-86
2022/09/22 00:08:31;;;;;;;1.80;1.35;;;17.30;66.60;;;;;;6247335;23;20294;-90
2022/09/22 00:11:07;;;;;;;2.90;1.70;;;17.20;66.30;;;;;;6219411;23;20010;-88
2022/09/22 00:13:34;;;;;;;3.38;1.58;;;17.20;66.70;;;;;;6219912;23;20006;-85
2022/09/22 00:16:01;;;;;;;4.25;1.65;;;17.20;66.30;;;;;;6245823;23;20389;-87
2022/09/22 00:18:30;;;;;;;4.18;1.85;;;17.30;66.50;;;;;;6246866;23;20036;-88
2022/09/22 00:20:55;;;;;;;5.07;1.60;;;17.20;66.40;;;;;;6245721;23;20004;-87
2022/09/22 00:23:25;;;;;;;2.00;1.52;;;17.20;66.30;;;;;;6247121;23;20078;-87
2022/09/22 00:25:51;;;;;;;2.78;1.85;;;17.20;66.50;;;;;;6218255;23;20315;-85
2022/09/22 00:28:19;;;;;;;3.28;1.63;;;17.20;66.50;;;;;;6245901;23;20003;-84
2022/09/22 00:30:44;;;;;;;3.22;1.70;;;17.00;66.30;;;;;;6243306;23;20000;-85
2022/09/22 00:33:10;;;;;;;2.08;1.50;;;17.10;66.10;;;;;;6217773;23;20367;-84
2022/09/22 00:35:37;;;;;;;2.20;1.20;;;16.90;67.20;;;;;;6246144;23;20004;-85
2022/09/22 00:38:04;;;;;;;1.90;1.15;;;16.90;67.00;;;;;;6220751;23;20004;-85
2022/09/22 00:40:32;;;;;;;2.47;1.10;;;16.90;66.80;;;;;;6219012;23;20004;-84
2022/09/22 00:43:35;;;;;;;3.20;1.17;;;17.00;66.80;;;;;;6245144;23;20422;-84
2022/09/22 00:46:12;;;;;;;3.72;1.40;;;17.10;67.00;;;;;;6123004;23;20014;-86
2022/09/22 00:48:44;;;;;;;1.65;1.00;;;17.20;66.70;;;;;;6231661;23;20005;-85
2022/09/22 00:51:12;;;;;;;2.28;1.40;;;17.30;66.20;;;;;;6244120;23;20004;-85
2022/09/22 00:53:38;;;;;;;2.40;1.55;;;17.10;65.60;;;;;;6245239;23;20015;-85
2022/09/22 00:56:06;;;;;;;1.67;1.35;;;16.70;66.20;;;;;;6218453;23;20098;-85
2022/09/22 00:58:37;;;;;;;3.20;1.35;;;16.60;66.90;;;;;;6245793;23;20366;-87
2022/09/22 01:01:03;;;;;;;1.45;0.90;;;16.60;67.40;;;;;;6245711;23;20000;-87
2022/09/22 01:03:29;;;;;;;2.58;1.02;;;16.70;66.80;;;;;;6245675;23;20009;-87
2022/09/22 01:06:00;;;;;;;2.95;1.30;;;16.70;67.20;;;;;;6245485;23;20000;-87
2022/09/22 01:08:27;;;;;;;;;;;16.40;67.40;;;;;;6245758;23;20000;-84
2022/09/22 01:10:53;;;;;;;1.95;1.45;;;16.20;68.90;;;;;;6244230;23;19899;-85
2022/09/22 01:13:23;;;;;;;2.40;1.02;;;16.00;69.20;;;;;;6244313;23;20020;-84
2022/09/22 01:16:22;;;;;;;1.70;0.82;;;15.80;70.50;;;;;;6243764;23;20373;-86
2022/09/22 01:19:04;;;;;;;1.77;0.90;;;15.90;69.40;;;;;;6244091;23;20521;-87
2022/09/22 01:21:38;;;;;;;1.10;0.80;;;16.10;69.50;;;;;;6245231;23;20403;-88
2022/09/22 01:24:35;;;;;;;1.75;0.90;;;16.20;69.20;;;;;;6244721;23;20007;-85
2022/09/22 01:27:19;;;;;;;3.67;0.82;;;16.30;68.60;;;;;;6244933;23;20019;-85
2022/09/22 01:30:12;;;;;;;4.20;1.10;;;16.50;68.00;;;;;;6216542;23;20437;-87
2022/09/22 01:32:38;;;;;;;0.77;0.60;;;;;;;;;;6217733;23;20008;-87
2022/09/22 01:35:30;;;;;;;0.93;0.65;;;16.70;67.50;;;;;;6244864;23;20411;-86
2022/09/22 01:38:14;;;;;;;1.30;0.70;;;16.80;67.80;;;;;;6240046;23;20039;-87
2022/09/22 01:40:56;;;;;;;1.20;0.60;;;16.90;68.20;;;;;;6244886;23;20065;-85
2022/09/22 01:43:44;;;;;;;1.85;0.95;;;16.90;67.80;;;;;;6245385;23;20127;-85
2022/09/22 01:46:27;;;;;;;0.52;0.50;;;16.90;67.70;;;;;;6245125;23;20075;-86
2022/09/22 01:48:59;;;;;;;1.00;0.52;;;17.00;67.60;;;;;;6244476;23;20006;-85
2022/09/22 01:51:39;;;;;;;1.42;0.68;;;17.10;67.70;;;;;;6244929;23;20083;-85
2022/09/22 01:54:15;;;;;;;1.48;0.95;;;17.10;67.30;;;;;;6243590;23;20004;-85
2022/09/22 01:56:45;;;;;;;1.13;0.70;;;17.00;67.20;;;;;;6245358;23;20007;-88
2022/09/22 01:59:12;;;;;;;0.70;0.60;;;16.60;67.50;;;;;;6245369;23;20031;-88
2022/09/22 02:01:44;;;;;;;0.68;0.60;;;16.70;67.70;;;;;;6246061;23;20004;-87
2022/09/22 02:04:15;;;;;;;3.13;0.65;;;16.80;67.80;;;;;;6244920;23;20570;-86
2022/09/22 02:06:46;;;;;;;;;;;16.80;67.70;;;;;;6245782;23;20084;-85
2022/09/22 02:09:16;;;;;;;1.25;0.90;;;16.90;67.70;;;;;;6245555;23;19904;-86
2022/09/22 02:11:42;;;;;;;1.67;0.80;;;16.90;67.80;;;;;;6247438;23;20315;-86
2022/09/22 02:14:08;;;;;;;1.73;1.00;;;16.90;67.50;;;;;;6243181;23;20000;-86
2022/09/22 02:16:35;;;;;;;1.92;1.10;;;16.70;67.90;;;;;;6246559;23;20094;-86
2022/09/22 02:19:19;;;;;;;1.05;0.65;;;16.60;68.40;;;;;;6246725;23;20027;-85
2022/09/22 02:21:46;;;;;;;2.60;0.90;;;16.60;68.30;;;;;;6247495;23;20008;-85
2022/09/22 02:24:30;;;;;;;1.65;0.50;;;16.60;68.00;;;;;;6246223;23;20434;-86
2022/09/22 02:26:58;;;;;;;1.05;0.50;;;16.50;68.20;;;;;;6247267;23;20115;-87
2022/09/22 02:29:27;;;;;;;2.10;0.60;;;16.60;68.30;;;;;;6247748;23;20074;-85
2022/09/22 02:31:55;;;;;;;0.80;0.60;;;16.70;68.40;;;;;;6247966;23;20054;-88
2022/09/22 02:34:21;;;;;;;2.17;0.80;;;16.70;67.60;;;;;;6245898;23;20430;-86
2022/09/22 02:37:05;;;;;;;1.13;0.68;;;16.80;67.70;;;;;;6247606;23;20118;-87
2022/09/22 02:39:45;;;;;;;3.47;0.70;;;16.80;67.70;;;;;;6246571;23;20007;-84
2022/09/22 02:42:20;;;;;;;0.80;0.80;;;16.80;67.70;;;;;;6219069;23;20012;-84
2022/09/22 02:45:06;;;;;;;1.63;0.70;;;16.80;67.60;;;;;;6219799;23;20012;-84
2022/09/22 02:47:43;;;;;;;1.83;0.70;;;16.80;67.40;;;;;;6245952;23;20406;-84
2022/09/22 02:50:12;;;;;;;0.95;0.55;;;16.90;67.30;;;;;;6245921;23;20401;-83
2022/09/22 02:52:39;;;;;;;1.00;0.70;;;16.80;67.00;;;;;;6245912;23;20077;-83
2022/09/22 02:55:07;;;;;;;1.10;0.93;;;16.90;66.90;;;;;;6245944;23;20000;-84
2022/09/22 02:57:33;;;;;;;4.25;0.90;;;16.80;67.00;;;;;;6244502;23;20288;-84
2022/09/22 02:59:58;;;;;;;2.88;0.82;;;16.90;66.30;;;;;;6218920;23;20004;-83
2022/09/22 03:02:24;;;;;;;0.98;0.60;;;16.90;66.30;;;;;;6219296;23;20032;-83
2022/09/22 03:04:50;;;;;;;1.55;0.70;;;16.90;66.20;;;;;;6246331;23;20445;-84
2022/09/22 03:07:17;;;;;;;2.65;0.70;;;17.00;66.10;;;;;;6246036;23;20030;-88
2022/09/22 03:09:43;;;;;;;1.75;0.80;;;17.00;66.00;;;;;;6247392;23;20034;-88
2022/09/22 03:12:08;;;;;;;1.50;0.70;;;16.90;65.90;;;;;;6247520;23;20072;-90
2022/09/22 03:14:34;;;;;;;2.08;0.65;;;16.90;66.00;;;;;;6248270;23;20461;-89
2022/09/22 03:17:00;;;;;;;1.83;0.82;;;16.90;65.90;;;;;;6247274;23;20004;-89
2022/09/22 03:19:26;;;;;;;1.95;0.80;;;17.00;65.90;;;;;;6247606;23;20366;-90
2022/09/22 03:21:52;;;;;;;1.58;0.90;;;17.00;65.80;;;;;;6248617;23;20127;-91
2022/09/22 03:24:18;;;;;;;1.50;0.98;;;17.00;65.60;;;;;;6248054;23;20061;-91
2022/09/22 03:26:43;;;;;;;1.23;0.75;;;17.00;65.30;;;;;;6220567;23;20099;-88
2022/09/22 03:29:09;;;;;;;1.65;0.73;;;17.00;65.00;;;;;;6247602;23;20004;-89
2022/09/22 03:31:35;;;;;;;1.70;0.88;;;17.00;64.90;;;;;;6219216;23;20032;-87
2022/09/22 03:34:00;;;;;;;0.98;0.82;;;17.00;65.20;;;;;;6246516;23;20090;-88
2022/09/22 03:36:26;;;;;;;3.63;1.00;;;17.00;65.00;;;;;;6246184;23;20007;-88
2022/09/22 03:38:52;;;;;;;2.03;0.90;;;17.00;64.80;;;;;;6219482;23;20027;-86
2022/09/22 03:41:18;;;;;;;3.53;0.80;;;17.00;64.90;;;;;;6219667;23;20095;-88
2022/09/22 03:43:43;;;;;;;1.08;0.80;;;16.90;64.70;;;;;;6246381;23;20003;-86
2022/09/22 03:46:09;;;;;;;0.90;0.70;;;16.90;64.80;;;;;;6219109;23;20004;-86
2022/09/22 03:48:35;;;;;;;1.33;0.80;;;17.00;64.70;;;;;;6246298;23;20438;-86
2022/09/22 03:51:01;;;;;;;1.23;0.68;;;17.00;64.60;;;;;;6245952;23;20003;-86
2022/09/22 03:53:27;;;;;;;1.40;0.80;;;16.90;64.50;;;;;;6246430;23;20466;-85
2022/09/22 03:56:04;;;;;;;1.48;0.82;;;16.90;64.60;;;;;;6245361;23;20035;-85
2022/09/22 03:58:30;;;;;;;1.73;1.10;;;16.90;64.70;;;;;;6245437;23;20026;-83
2022/09/22 04:00:56;;;;;;;2.17;1.20;;;16.80;64.80;;;;;;6245455;23;20434;-83
2022/09/22 04:03:23;;;;;;;2.42;0.90;;;16.80;64.80;;;;;;6246167;23;20015;-89
2022/09/22 04:05:49;;;;;;;1.42;0.80;;;16.70;64.60;;;;;;6244809;23;20015;-90
2022/09/22 04:08:16;;;;;;;2.05;0.88;;;16.80;64.90;;;;;;6247073;23;19996;-90
2022/09/22 04:10:43;;;;;;;3.17;1.40;;;16.70;64.70;;;;;;6246812;23;19996;-89
2022/09/22 04:13:09;;;;;;;2.42;1.02;;;16.70;64.30;;;;;;6246582;23;20000;-90
2022/09/22 04:15:35;;;;;;;1.95;0.90;;;16.70;65.00;;;;;;6246438;23;20050;-90
2022/09/22 04:18:00;;;;;;;1.92;1.10;;;16.60;64.80;;;;;;6245410;23;20012;-89
2022/09/22 04:20:26;;;;;;;1.65;0.88;;;16.60;64.90;;;;;;6246594;23;20363;-89
2022/09/22 04:22:52;;;;;;;1.90;1.10;;;16.60;65.10;;;;;;6246797;23;20015;-89
2022/09/22 04:25:18;;;;;;;0.90;0.90;;;16.60;65.20;;;;;;6245492;23;20011;-85
2022/09/22 04:27:43;;;;;;;2.33;1.00;;;16.70;65.30;;;;;;6246360;23;19996;-87
2022/09/22 04:30:10;;;;;;;2.13;0.80;;;16.70;65.50;;;;;;6245404;23;20004;-85
2022/09/22 04:32:36;;;;;;;3.70;1.40;;;16.60;65.20;;;;;;6245225;23;20415;-86
2022/09/22 04:35:01;;;;;;;2.63;1.20;;;16.60;65.30;;;;;;6245757;23;20000;-85
2022/09/22 04:37:27;;;;;;;1.02;0.80;;;16.60;65.40;;;;;;6246092;23;20035;-84
2022/09/22 04:39:54;;;;;;;1.95;1.23;;;16.60;65.50;;;;;;6217184;23;20015;-85
2022/09/22 04:42:20;;;;;;;1.83;1.27;;;16.60;65.50;;;;;;6245304;23;20004;-87
2022/09/22 04:44:46;;;;;;;1.88;0.93;;;16.60;65.90;;;;;;6245766;23;20053;-87
2022/09/22 04:47:12;;;;;;;0.65;0.60;;;16.60;65.80;;;;;;6246255;23;19996;-87
2022/09/22 04:49:38;;;;;;;1.80;1.15;;;16.50;65.80;;;;;;6245842;23;20000;-88
2022/09/22 04:52:04;;;;;;;1.17;0.90;;;16.50;65.80;;;;;;6246494;23;20445;-88
2022/09/22 04:54:30;;;;;;;2.67;1.02;;;16.30;66.20;;;;;;6246214;23;20007;-88
2022/09/22 04:56:55;;;;;;;2.72;1.00;;;16.30;66.30;;;;;;6220097;23;20008;-88
2022/09/22 04:59:21;;;;;;;2.88;0.82;;;16.30;66.60;;;;;;6245604;23;20426;-87
2022/09/22 05:01:47;;;;;;;1.45;1.13;;;16.40;66.70;;;;;;6246197;23;20323;-85
2022/09/22 05:04:13;;;;;;;2.63;0.90;;;16.40;67.00;;;;;;6245001;23;20070;-84
2022/09/22 05:06:39;;;;;;;2.60;1.23;;;16.40;66.80;;;;;;6243430;23;20407;-84
2022/09/22 05:09:05;;;;;;;1.80;1.00;;;16.40;66.60;;;;;;6242998;23;20444;-84
2022/09/22 05:11:31;;;;;;;2.50;0.93;;;16.40;66.80;;;;;;6217004;23;20008;-84
2022/09/22 05:13:57;;;;;;;2.03;1.02;;;16.50;66.90;;;;;;6240964;23;20079;-84
2022/09/22 05:16:24;;;;;;;2.00;1.20;;;16.50;66.90;;;;;;6243383;23;20000;-84
2022/09/22 05:18:50;;;;;;;2.42;1.50;;;16.50;66.90;;;;;;6243912;23;20071;-87
2022/09/22 05:21:17;;;;;;;1.52;1.08;;;16.60;66.80;;;;;;6244136;23;20027;-85
2022/09/22 05:23:44;;;;;;;1.10;1.00;;;16.50;66.50;;;;;;6246365;23;20007;-85
2022/09/22 05:26:09;;;;;;;1.60;1.13;;;16.60;66.50;;;;;;6244111;23;20011;-87
2022/09/22 05:28:36;;;;;;;3.08;1.17;;;16.60;66.50;;;;;;6245067;23;20000;-87
2022/09/22 05:31:01;;;;;;;2.45;1.50;;;16.60;66.60;;;;;;6246089;23;20000;-85
2022/09/22 05:33:28;;;;;;;3.05;1.00;;;16.70;66.70;;;;;;6245033;23;20002;-85
2022/09/22 05:35:53;;;;;;;1.25;0.90;;;16.60;66.70;;;;;;6246359;23;20008;-87
2022/09/22 05:38:19;;;;;;;1.08;0.90;;;16.60;66.70;;;;;;6245951;23;20083;-88
2022/09/22 05:40:48;;;;;;;2.28;1.08;;;16.70;66.90;;;;;;6246487;23;20028;-87
2022/09/22 05:43:14;;;;;;;2.92;1.10;;;16.70;66.70;;;;;;6219624;23;20013;-88
2022/09/22 05:45:41;;;;;;;3.05;1.00;;;16.70;66.70;;;;;;6247715;23;20007;-88
2022/09/22 05:48:06;;;;;;;1.90;1.10;;;16.70;66.60;;;;;;6247729;23;20007;-88
2022/09/22 05:50:32;;;;;;;3.70;1.05;;;16.80;67.00;;;;;;6248158;23;20000;-82
2022/09/22 05:53:05;;;;;;;1.58;0.88;;;16.80;66.80;;;;;;6247820;23;20000;-82
2022/09/22 05:55:32;;;;;;;3.15;0.80;;;16.80;66.90;;;;;;6247944;23;20075;-85
2022/09/22 05:57:58;;;;;;;1.98;0.90;;;16.70;66.80;;;;;;6247233;23;20000;-84
2022/09/22 06:00:25;;;;;;;2.67;1.02;;;16.80;67.00;;;;;;6246289;23;20292;-84
2022/09/22 06:02:51;;;;;;;1.90;0.80;;;16.70;66.90;;;;;;6246596;23;20485;-83
2022/09/22 06:05:17;;;;;;;2.88;0.90;;;16.60;67.20;;;;;;6246251;23;20012;-83
2022/09/22 06:07:43;;;;;;;1.33;0.77;;;16.70;67.40;;;;;;6220042;23;20027;-83
2022/09/22 06:10:11;;;;;;;1.08;0.85;;;16.60;67.30;;;;;;6220443;23;20427;-83
2022/09/22 06:12:38;;;;;;;1.08;0.73;;;16.70;67.50;;;;;;6220533;23;20000;-82
2022/09/22 06:15:05;;;;;;;2.33;0.93;;;16.80;67.40;;;;;;6247299;23;20004;-82
2022/09/22 06:17:31;;;;;;;3.40;0.80;;;16.90;67.30;;;;;;6248141;23;20071;-82
2022/09/22 06:19:57;;;;;;;2.17;0.82;;;17.00;67.10;;;;;;6247680;23;20042;-84
2022/09/22 06:22:23;;;;;;;4.07;1.02;;;17.00;66.80;;;;;;6247200;23;20081;-84
2022/09/22 06:24:49;;;;;;;1.85;1.08;;;17.00;66.70;;;;;;6220271;23;20008;-84
2022/09/22 06:27:15;;;;;;;4.07;0.85;;;17.00;66.80;;;;;;6247626;23;20399;-84
2022/09/22 06:29:41;;;;;;;1.77;0.70;;;17.10;66.90;;;;;;6247649;23;20071;-84
2022/09/22 06:32:08;;;;;;;2.53;1.20;;;17.10;67.30;;;;;;6247699;23;20051;-83
2022/09/22 06:34:35;;;;;;;2.33;1.13;;;17.00;67.30;;;;;;6247114;23;20395;-83
2022/09/22 06:37:01;;;;;;;2.45;1.10;;;17.00;67.20;;;;;;6247753;23;20462;-83
2022/09/22 06:39:27;;;;;;;1.10;0.90;;;17.00;67.20;;;;;;6247858;23;20338;-83
2022/09/22 06:41:54;;;;;;;3.10;0.88;;;17.00;67.10;;;;;;6247873;23;20007;-84
2022/09/22 06:44:20;;;;;;;1.50;1.02;;;17.10;67.70;;;;;;6247313;23;20005;-84
2022/09/22 06:46:46;;;;;;;1.52;0.90;;;17.10;67.20;;;;;;6247950;23;20047;-84
2022/09/22 06:49:12;;;;;;;3.83;0.90;;;17.10;67.20;;;;;;6247100;23;20000;-83
2022/09/22 06:51:38;;;;;;;2.67;1.02;;;17.20;67.40;;;;;;6247277;23;20067;-84
2022/09/22 06:54:05;;;;;;;1.48;0.70;;;17.20;67.30;;;;;;6247094;23;19997;-83
2022/09/22 06:56:41;;;;;;;2.10;1.15;;;17.30;67.10;;;;;;6247223;23;20023;-83
2022/09/22 06:59:11;;;;;;;2.67;1.00;;;17.30;67.20;;;;;;6220655;23;20004;-83
2022/09/22 07:01:39;;;;;;;1.67;0.90;;;17.20;67.20;;;;;;6247133;23;20027;-84
2022/09/22 07:04:05;;;;;;;3.75;1.33;;;17.40;67.30;;;;;;6247226;23;20020;-84
2022/09/22 07:06:31;;;;;;;3.28;1.20;;;17.40;67.40;;;;;;6247356;23;20071;-84
2022/09/22 07:08:57;;;;;;;1.90;1.00;;;17.50;67.60;;;;;;6223069;23;20024;-87
2022/09/22 07:11:23;;;;;;;2.67;1.30;;;17.60;67.50;;;;;;6228028;23;20071;-84
2022/09/22 07:13:53;;;;;;;2.33;1.10;;;17.70;67.20;;;;;;6249895;23;20311;-85
2022/09/22 07:16:20;;;;;;;;;;;17.70;66.90;;;;;;6248051;23;20292;-83
2022/09/22 07:18:48;;;;;;;2.65;1.27;;;17.70;66.30;;;;;;6247704;23;19899;-82
2022/09/22 07:21:14;;;;;;;2.10;1.08;;;17.70;66.50;;;;;;6248304;23;20374;-83
2022/09/22 07:23:40;;;;;;;2.78;1.08;;;17.80;66.60;;;;;;6247528;23;20000;-83
2022/09/22 07:26:11;;;;;;;2.60;0.90;;;17.80;66.60;;;;;;6220348;23;20031;-84
2022/09/22 07:28:37;;;;;;;1.75;0.85;;;17.90;66.80;;;;;;6247158;23;20374;-84
2022/09/22 07:31:08;;;;;;;2.53;0.93;;;17.90;66.80;;;;;;6247755;23;20492;-84
2022/09/22 07:33:35;;;;;;;1.45;0.93;;;18.00;66.60;;;;;;6247317;23;19996;-84
2022/09/22 07:36:07;;;;;;;1.25;0.90;;;18.00;66.50;;;;;;6246888;23;20000;-84
2022/09/22 07:38:35;;;;;;;0.70;0.70;;;18.00;66.40;;;;;;6247001;23;20000;-84
2022/09/22 07:41:08;;;;;;;2.20;0.85;;;18.10;66.50;;;;;;6247210;23;20030;-82
2022/09/22 07:43:35;;;;;;;1.33;1.00;;;18.20;66.50;;;;;;6247032;23;20083;-82
2022/09/22 07:46:01;;;;;;;1.00;0.80;;;18.20;66.10;;;;;;6247000;23;20367;-82
2022/09/22 07:48:46;;;;;;;1.17;0.88;;;18.30;66.10;;;;;;6247100;23;20000;-83
2022/09/22 07:51:18;;;;;;;4.18;0.88;;;18.30;66.10;;;;;;6247125;23;20003;-83
2022/09/22 07:53:53;;;;;;;2.85;0.80;;;18.40;66.00;;;;;;6246971;23;20135;-83
2022/09/22 07:56:20;;;;;;;1.10;0.70;;;18.40;66.00;;;;;;6247186;23;20007;-83
2022/09/22 07:58:52;;;;;;;2.33;0.98;;;18.40;65.80;;;;;;6247607;23;20414;-84
2022/09/22 08:01:31;;;;;;;3.63;1.02;;;18.40;65.40;;;;;;6247657;23;20330;-84
2022/09/22 08:03:56;;;;;;;2.80;1.45;;;18.40;65.40;;;;;;6246716;23;20444;-84
2022/09/22 08:06:22;;;;;;;1.80;0.90;;;18.40;64.80;;;;;;6246894;23;20008;-84
2022/09/22 08:08:54;;;;;;;1.98;0.90;;;18.40;65.20;;;;;;6246715;23;20006;-84
2022/09/22 08:11:24;;;;;;;3.28;0.85;;;18.40;65.70;;;;;;6248108;23;20454;-84
2022/09/22 08:13:53;;;;;;;2.33;0.60;;;18.40;65.70;;;;;;6246835;23;19996;-84
2022/09/22 08:16:26;;;;;;;0.82;0.57;;;18.40;65.30;;;;;;6247017;23;20004;-85
2022/09/22 08:18:55;;;;;;;2.05;0.60;;;18.40;65.50;;;;;;6246712;23;20284;-85
2022/09/22 08:21:34;;;;;;;1.33;0.70;;;18.40;65.50;;;;;;6246914;23;20004;-82
2022/09/22 08:24:01;;;;;;;1.58;0.63;;;18.40;65.30;;;;;;6246881;23;20007;-83
2022/09/22 08:26:26;;;;;;;1.55;0.70;;;18.40;64.80;;;;;;6246858;23;20004;-83
2022/09/22 08:28:54;;;;;;;1.05;0.60;;;18.40;64.80;;;;;;6246502;23;20480;-84
2022/09/22 08:31:21;;;;;;;1.88;0.82;;;18.50;64.90;;;;;;6246861;23;20080;-84
2022/09/22 08:33:48;;;;;;;2.08;0.90;;;18.50;64.70;;;;;;6247284;23;20137;-85
2022/09/22 08:36:14;;;;;;;0.68;0.63;;;18.50;64.70;;;;;;6247135;23;20004;-84
2022/09/22 08:38:41;;;;;;;1.70;0.80;;;18.60;64.60;;;;;;6246508;23;20008;-84
2022/09/22 08:41:25;;;;;;;1.25;0.90;;;18.50;63.40;;;;;;6246514;23;20304;-85
2022/09/22 08:43:55;;;;;;;2.20;1.08;;;18.50;64.10;;;;;;6247082;23;20027;-85
2022/09/22 08:46:28;;;;;;;2.53;0.60;;;18.60;64.30;;;;;;6247024;23;20004;-83
2022/09/22 08:52:32;;;;;;;2.55;0.60;;;18.70;64.70;;;;;;6240660;23;20058;-83
2022/09/22 08:54:59;;;;;;;1.20;0.68;;;18.80;64.20;;;;;;6246504;23;20027;-83
2022/09/22 08:57:39;;;;;;;2.35;0.85;;;19.00;63.80;;;;;;6219902;23;20441;-84
2022/09/22 09:00:27;;;;;;;0.90;0.70;;;19.20;64.00;;;;;;6246627;23;20008;-84
2022/09/22 09:03:12;;;;;;;0.77;0.45;;;19.40;63.30;;;;;;6246333;23;20023;-85
2022/09/22 09:06:03;;;;;;;0.95;0.60;;;19.50;63.40;;;;;;6246207;23;20016;-85
2022/09/22 09:08:34;;;;;;;1.38;0.80;;;19.80;63.20;;;;;;6219154;23;20000;-84
2022/09/22 09:11:25;;;;;;;1.50;0.50;;;19.90;62.30;;;;;;6246318;23;20000;-85
2022/09/22 09:13:59;;;;;;;0.77;0.60;;;20.10;62.10;;;;;;6246698;23;19996;-85
2022/09/22 09:16:44;;;;;;;2.22;0.40;;;20.20;62.70;;;;;;6246700;23;20327;-83
2022/09/22 09:19:21;;;;;;;2.15;0.40;;;20.30;62.20;;;;;;6246010;23;19996;-82
2022/09/22 09:21:53;;;;;;;1.38;0.43;;;20.40;62.00;;;;;;6246742;23;20417;-83
2022/09/22 09:24:28;;;;;;;1.73;0.68;;;20.60;61.80;;;;;;6246286;23;20469;-83
2022/09/22 09:27:03;;;;;;;1.20;0.68;;;20.80;61.80;;;;;;6246853;23;19997;-83
2022/09/22 09:29:33;;;;;;;4.90;0.40;;;21.00;61.40;;;;;;6219579;23;20016;-83
2022/09/22 09:32:03;;;;;;;1.52;0.73;;;21.20;61.50;;;;;;6246505;23;20048;-83
2022/09/22 09:34:29;;;;;;;2.33;0.50;;;21.40;61.10;;;;;;6245800;23;20004;-83
2022/09/22 09:37:09;;;;;;;1.08;0.40;;;21.50;60.90;;;;;;6245963;23;20004;-82
2022/09/22 09:39:38;;;;;;;1.75;0.65;;;21.70;60.50;;;;;;6246503;23;20492;-82
2022/09/22 09:42:34;;;;;;;2.17;0.47;;;21.80;60.60;;;;;;6245948;23;20049;-82
2022/09/22 09:45:01;;;;;;;0.75;0.43;;;21.90;59.70;;;;;;6220657;23;20422;-82
2022/09/22 09:47:33;;;;;;;0.20;0.20;;;22.00;58.90;;;;;;6246324;23;20051;-82
2022/09/22 09:49:59;;;;;;;8.18;0.55;;;22.00;58.70;;;;;;6246047;23;20430;-82
2022/09/22 09:52:26;;;;;;;1.02;0.55;;;22.10;58.80;;;;;;6218741;23;20000;-82
2022/09/22 09:54:53;;;;;;;0.60;0.47;;;22.20;58.40;;;;;;6246103;23;20069;-82
2022/09/22 09:57:20;;;;;;;0.60;0.30;;;22.40;57.50;;;;;;6246409;23;20051;-82
2022/09/22 10:02:36;;;;;;;0.20;0.20;;;22.70;58.20;;;;;;6246736;23;20015;-85
2022/09/22 10:05:09;;;;;;;0.88;0.40;;;22.90;57.80;;;;;;6218897;23;20019;-85
2022/09/22 10:07:43;;;;;;;0.80;0.40;;;23.10;57.50;;;;;;6246440;23;20382;-85
2022/09/22 10:10:27;;;;;;;0.52;0.30;;;23.30;56.50;;;;;;6246085;23;19997;-85
2022/09/22 10:13:03;;;;;;;1.50;0.47;;;23.40;55.90;;;;;;6246091;23;19992;-85
2022/09/22 10:15:30;;;;;;;2.17;0.40;;;23.40;54.60;;;;;;6245922;23;20407;-85
2022/09/22 10:17:56;;;;;;;0.52;0.47;;;23.40;54.30;;;;;;6246212;23;20011;-84
2022/09/22 10:20:27;;;;;;;0.40;0.30;;;23.40;54.80;;;;;;6245792;23;20322;-85
2022/09/22 10:22:54;;;;;;;1.25;0.55;;;23.40;54.90;;;;;;6246572;23;20004;-85
2022/09/22 10:25:26;;;;;;;0.25;0.25;;;23.40;54.70;;;;;;6246681;23;20000;-84
2022/09/22 10:28:03;;;;;;;0.40;0.30;;;23.40;53.80;;;;;;6246180;23;20008;-85
2022/09/22 10:30:36;;;;;;;0.30;0.30;;;23.40;53.90;;;;;;6219901;23;20381;-85
2022/09/22 10:33:03;;;;;;;0.40;0.30;;;23.50;54.30;;;;;;6248437;23;20030;-85
2022/09/22 10:35:32;;;;;;;2.47;0.40;;;23.70;54.20;;;;;;6248425;23;20004;-83
2022/09/22 10:38:08;;;;;;;0.50;0.40;;;23.90;54.20;;;;;;6248118;23;20011;-83
2022/09/22 10:40:37;;;;;;;0.95;0.50;;;24.10;54.00;;;;;;6248187;23;20000;-83
2022/09/22 10:43:16;;;;;;;0.30;0.20;;;24.20;53.40;;;;;;6252749;23;20051;-82
2022/09/22 10:45:51;;;;;;;2.95;0.47;;;24.20;52.50;;;;;;6224153;23;20030;-82
2022/09/22 10:48:36;;;;;;;0.70;0.50;;;24.20;51.40;;;;;;6248324;23;19996;-81
2022/09/22 10:51:17;;;;;;;0.75;0.60;;;24.00;51.90;;;;;;6248194;23;20008;-82
2022/09/22 10:53:52;;;;;;;0.68;0.45;;;24.10;51.60;;;;;;6248998;23;20000;-83
2022/09/22 10:56:37;;;;;;;1.02;0.70;;;24.10;51.90;;;;;;6249029;23;20000;-82
2022/09/22 10:59:15;;;;;;;1.77;0.40;;;24.30;50.80;;;;;;6249295;23;20415;-82
2022/09/22 11:01:54;;;;;;;1.10;0.60;;;24.40;50.90;;;;;;6248913;23;20008;-87
2022/09/22 11:04:41;;;;;;;0.45;0.40;;;24.30;51.20;;;;;;6247233;23;20012;-82
2022/09/22 11:14:06;;;;;;;0.60;0.50;;;24.10;50.40;;;;;;6261684;23;20074;-85
2022/09/22 11:16:38;;;;;;;0.40;0.40;;;24.00;50.00;;;;;;6252808;23;20003;-85
2022/09/22 11:19:44;;;;;;;0.55;0.38;;;23.80;50.00;;;;;;6248950;23;20105;-88
2022/09/22 11:22:26;;;;;;;1.33;0.40;;;23.80;48.20;;;;;;6249703;23;19996;-87
2022/09/22 11:25:06;;;;;;;2.15;0.40;;;23.90;48.80;;;;;;6249560;23;20004;-88
2022/09/22 11:28:02;;;;;;;1.03;0.30;;;23.90;49.30;;;;;;6248899;23;20043;-87
2022/09/22 11:30:43;;;;;;;1.38;0.35;;;23.90;48.40;;;;;;6248228;23;20046;-87
2022/09/22 11:33:38;;;;;;;0.52;0.43;;;24.10;49.50;;;;;;6248128;23;19996;-87
2022/09/22 11:36:30;;;;;;;0.57;0.50;;;24.60;48.90;;;;;;6248992;23;20300;-87
2022/09/22 11:39:19;;;;;;;1.13;0.45;;;24.80;47.40;;;;;;6247296;23;20026;-87
2022/09/22 11:41:54;;;;;;;3.20;0.50;;;24.70;47.70;;;;;;6248228;23;20000;-89
2022/09/22 11:45:06;;;;;;;0.65;0.45;;;24.80;48.20;;;;;;6246325;23;19992;-84
2022/09/22 11:47:56;;;;;;;0.70;0.40;;;25.00;47.80;;;;;;6124902;23;20009;-83
2022/09/22 11:50:51;;;;;;;0.70;0.45;;;25.20;46.00;;;;;;6246602;23;20369;-87
2022/09/22 11:53:39;;;;;;;1.55;0.50;;;25.50;47.30;;;;;;6195435;23;20031;-84
2022/09/22 11:56:30;;;;;;;0.50;0.32;;;25.70;45.70;;;;;;6247240;23;20004;-84
2022/09/22 11:59:00;;;;;;;0.45;0.40;;;26.10;45.90;;;;;;6246617;23;20004;-84
2022/09/22 12:01:31;;;;;;;0.40;0.40;;;26.40;45.70;;;;;;6247386;23;20004;-84
2022/09/22 12:04:06;;;;;;;0.40;0.30;;;26.60;44.90;;;;;;6245812;23;20012;-85
2022/09/22 12:06:40;;;;;;;5.20;0.40;;;26.80;45.00;;;;;;6219345;23;20415;-82
2022/09/22 12:09:29;;;;;;;1.23;0.20;;;27.10;44.80;;;;;;6245598;23;20430;-83
2022/09/22 12:11:56;;;;;;;2.75;0.50;;;27.10;42.90;;;;;;6207803;23;20005;-83
2022/09/22 12:14:23;;;;;;;0.38;0.38;;;27.20;43.90;;;;;;6219394;23;20465;-83
2022/09/22 12:16:57;;;;;;;1.83;0.93;;;27.30;42.40;;;;;;6242933;23;20590;-83
2022/09/22 12:20:07;;;;;;;1.05;0.60;;;27.40;43.40;;;;;;6244241;23;19996;-83
2022/09/22 12:22:45;;;;;;;2.13;0.50;;;27.50;41.70;;;;;;6194732;23;20000;-81
2022/09/22 12:25:14;;;;;;;0.40;0.40;;;27.60;43.20;;;;;;6244984;23;20000;-84
2022/09/22 12:27:40;;;;;;;0.65;0.50;;;27.60;41.70;;;;;;6241866;23;20004;-84
2022/09/22 12:30:18;;;;;;;2.22;0.60;;;27.60;42.60;;;;;;6245145;23;20057;-84
2022/09/22 12:32:49;;;;;;;1.08;0.60;;;27.70;42.70;;;;;;6245031;23;20011;-84
2022/09/22 12:35:29;;;;;;;0.60;0.30;;;27.80;42.90;;;;;;6246645;23;20085;-84
2022/09/22 12:37:59;;;;;;;1.80;0.30;;;29.10;42.00;;;;;;6219952;23;20000;-85
2022/09/22 12:40:35;;;;;;;0.60;0.40;;;27.90;41.50;;;;;;6247333;23;20042;-85
2022/09/22 12:43:02;;;;;;;0.45;0.30;;;28.00;41.80;;;;;;6246635;23;19996;-84
2022/09/22 12:45:40;;;;;;;0.80;0.60;;;28.00;41.10;;;;;;6246699;23;20007;-85
2022/09/22 12:48:12;;;;;;;2.28;0.88;;;28.00;41.00;;;;;;6246775;23;20307;-87
2022/09/22 12:50:41;;;;;;;1.58;0.63;;;28.00;41.70;;;;;;6247126;23;20005;-85
2022/09/22 12:53:21;;;;;;;0.65;0.50;;;28.00;41.80;;;;;;6219974;23;20425;-85
2022/09/22 12:55:55;;;;;;;0.45;0.30;;;28.00;40.30;;;;;;6246341;23;20000;-85
2022/09/22 12:58:21;;;;;;;1.55;0.60;;;28.00;40.90;;;;;;6246673;23;20008;-85
2022/09/22 13:00:55;;;;;;;0.52;0.22;;;27.90;41.20;;;;;;6246746;23;20015;-85
2022/09/22 13:03:23;;;;;;;1.10;0.40;;;27.70;40.90;;;;;;6245913;23;20529;-86
2022/09/22 13:05:51;;;;;;;1.60;0.60;;;27.40;40.70;;;;;;6246137;23;20015;-83
2022/09/22 13:08:23;;;;;;;3.25;0.60;;;27.10;41.30;;;;;;6246419;23;20307;-82
2022/09/22 13:11:00;;;;;;;1.38;0.50;;;26.80;41.70;;;;;;6246399;23;20431;-82
2022/09/22 13:13:43;;;;;;;0.77;0.30;;;26.50;42.00;;;;;;6219060;23;20000;-82
2022/09/22 13:16:15;;;;;;;1.00;0.35;;;26.10;42.20;;;;;;6246280;23;20007;-82
2022/09/22 13:18:58;;;;;;;0.30;0.20;;;25.60;42.90;;;;;;6246066;23;20034;-82
2022/09/22 13:21:29;;;;;;;0.30;0.30;;;25.30;44.20;;;;;;6219479;23;20058;-82
2022/09/22 13:23:56;;;;;;;0.32;0.32;;;25.00;44.60;;;;;;6245829;23;20028;-82